createdAt,value
2022-09-16T00:00:29.527Z,13.50
2022-09-16T00:02:56.451Z,13.40
2022-09-16T00:05:23.740Z,13.40
2022-09-16T00:07:51.075Z,13.30
2022-09-16T00:10:18.304Z,13.40
2022-09-16T00:12:45.033Z,13.30
2022-09-16T00:15:11.928Z,13.40
2022-09-16T00:17:39.057Z,13.50
2022-09-16T00:20:07.537Z,13.50
2022-09-16T00:22:34.963Z,13.50
2022-09-16T00:25:01.732Z,13.60
2022-09-16T00:27:28.567Z,13.70
2022-09-16T00:29:55.345Z,13.60
2022-09-16T00:32:24.058Z,13.50
2022-09-16T00:34:51.466Z,13.50
2022-09-16T00:37:18.612Z,13.40
2022-09-16T00:39:48.369Z,13.30
2022-09-16T00:42:15.830Z,13.30
2022-09-16T00:44:57.774Z,13.30
2022-09-16T00:47:31.162Z,13.20
2022-09-16T00:50:06.232Z,13.30
2022-09-16T00:52:33.465Z,13.10
2022-09-16T00:55:05.860Z,13.00
2022-09-16T00:57:33.159Z,12.90
2022-09-16T01:00:00.500Z,13.00
2022-09-16T01:02:27.687Z,13.10
2022-09-16T01:05:00.663Z,13.10
2022-09-16T01:07:36.069Z,13.00
2022-09-16T01:10:02.968Z,13.10
2022-09-16T01:12:32.369Z,13.10
2022-09-16T01:15:00.745Z,13.10
2022-09-16T01:17:37.040Z,13.20
2022-09-16T01:20:37.672Z,13.20
2022-09-16T01:23:22.623Z,13.30
2022-09-16T01:26:14.665Z,13.20
2022-09-16T01:29:09.551Z,13.10
2022-09-16T01:31:39.304Z,13.20
2022-09-16T01:34:31.200Z,13.20
2022-09-16T01:37:06.748Z,13.20
2022-09-16T01:39:42.695Z,13.10
2022-09-16T01:42:35.744Z,13.10
2022-09-16T01:45:15.596Z,12.90
2022-09-16T01:47:57.673Z,12.90
2022-09-16T01:50:37.265Z,13.00
2022-09-16T01:53:17.982Z,13.10
2022-09-16T01:55:59.558Z,13.10
2022-09-16T01:58:39.550Z,13.10
2022-09-16T02:01:12.434Z,13.20
2022-09-16T02:03:42.799Z,13.10
2022-09-16T02:06:15.192Z,13.00
2022-09-16T02:09:08.110Z,13.00
2022-09-16T02:11:37.535Z,12.80
2022-09-16T02:14:10.411Z,12.70
2022-09-16T02:16:49.216Z,12.60
2022-09-16T02:19:26.758Z,12.60
2022-09-16T02:22:12.546Z,12.60
2022-09-16T02:24:41.531Z,12.60
2022-09-16T02:27:14.930Z,12.80
2022-09-16T02:29:46.520Z,12.90
2022-09-16T02:32:15.219Z,12.90
2022-09-16T02:34:45.713Z,12.90
2022-09-16T02:37:20.006Z,12.90
2022-09-16T02:39:50.666Z,12.80
2022-09-16T02:42:17.759Z,12.70
2022-09-16T02:44:46.403Z,12.50
2022-09-16T02:47:37.380Z,12.40
2022-09-16T02:50:22.204Z,12.40
2022-09-16T02:53:00.234Z,12.50
2022-09-16T02:55:56.421Z,12.50
2022-09-16T02:58:23.357Z,12.60
2022-09-16T03:00:53.879Z,12.60
2022-09-16T03:03:20.878Z,12.70
2022-09-16T03:06:14.110Z,12.80
2022-09-16T03:08:42.253Z,12.90
2022-09-16T03:11:19.413Z,13.00
2022-09-16T03:13:59.903Z,13.00
2022-09-16T03:16:50.748Z,13.10
2022-09-16T03:19:36.063Z,13.00
2022-09-16T03:22:05.787Z,13.00
2022-09-16T03:24:40.680Z,12.90
2022-09-16T03:27:31.944Z,12.90
2022-09-16T03:30:06.528Z,13.00
2022-09-16T03:32:43.142Z,13.00
2022-09-16T03:35:37.094Z,13.20
2022-09-16T03:38:05.903Z,13.00
2022-09-16T03:40:34.436Z,13.10
2022-09-16T03:43:09.588Z,13.10
2022-09-16T03:45:36.440Z,13.20
2022-09-16T03:48:03.329Z,12.90
2022-09-16T03:50:30.076Z,13.00
2022-09-16T03:52:56.844Z,13.10
2022-09-16T03:55:23.611Z,13.20
2022-09-16T03:57:50.394Z,13.00
2022-09-16T04:00:17.236Z,12.90
2022-09-16T04:02:44.055Z,12.90
2022-09-16T04:05:11.109Z,12.90
2022-09-16T04:07:38.127Z,12.90
2022-09-16T04:10:06.940Z,12.90
2022-09-16T04:12:34.079Z,12.80
2022-09-16T04:15:01.118Z,12.90
2022-09-16T04:17:31.145Z,12.90
2022-09-16T04:19:57.876Z,12.80
2022-09-16T04:22:24.696Z,12.80
2022-09-16T04:24:51.446Z,12.80
2022-09-16T04:27:19.523Z,12.70
2022-09-16T04:29:46.702Z,12.80
2022-09-16T04:32:13.560Z,12.90
2022-09-16T04:34:40.344Z,12.90
2022-09-16T04:37:07.340Z,13.00
2022-09-16T04:39:34.205Z,13.00
2022-09-16T04:42:01.138Z,13.20
2022-09-16T04:44:30.168Z,13.10
2022-09-16T04:46:56.972Z,13.10
2022-09-16T04:49:23.956Z,13.10
2022-09-16T04:51:52.235Z,13.00
2022-09-16T04:54:19.188Z,12.90
2022-09-16T04:56:46.804Z,13.00
2022-09-16T04:59:13.541Z,12.90
2022-09-16T05:01:40.777Z,12.90
2022-09-16T05:04:08.255Z,12.90
2022-09-16T05:06:38.587Z,12.80
2022-09-16T05:09:05.871Z,12.70
2022-09-16T05:11:34.769Z,12.70
2022-09-16T05:14:03.463Z,12.70
2022-09-16T05:16:30.876Z,12.90
2022-09-16T05:18:59.101Z,12.80
2022-09-16T05:21:28.180Z,12.60
2022-09-16T05:23:59.294Z,12.40
2022-09-16T05:26:27.945Z,12.40
2022-09-16T05:28:55.092Z,12.30
2022-09-16T05:31:23.156Z,12.30
2022-09-16T05:33:59.908Z,12.40
2022-09-16T05:36:28.577Z,12.30
2022-09-16T05:39:20.938Z,12.30
2022-09-16T05:41:42.462Z,12.40
2022-09-16T05:44:09.239Z,12.40
2022-09-16T05:46:36.648Z,12.50
2022-09-16T05:49:04.409Z,12.50
2022-09-16T05:51:31.309Z,12.50
2022-09-16T05:53:59.549Z,12.60
2022-09-16T05:56:28.993Z,12.70
2022-09-16T05:58:58.249Z,12.60
2022-09-16T06:01:28.426Z,12.70
2022-09-16T06:03:55.395Z,12.40
2022-09-16T06:06:36.093Z,12.50
2022-09-16T06:09:21.150Z,12.50
2022-09-16T06:11:50.299Z,12.50
2022-09-16T06:14:18.626Z,12.50
2022-09-16T06:16:46.349Z,12.50
2022-09-16T06:19:17.780Z,12.40
2022-09-16T06:21:45.492Z,12.60
2022-09-16T06:24:14.729Z,12.60
2022-09-16T06:26:43.879Z,12.70
2022-09-16T06:29:11.486Z,12.70
2022-09-16T06:31:39.022Z,12.70
2022-09-16T06:34:07.124Z,12.70
2022-09-16T06:36:42.804Z,12.70
2022-09-16T06:39:15.746Z,12.70
2022-09-16T06:41:42.804Z,12.60
2022-09-16T06:44:10.141Z,12.70
2022-09-16T06:46:37.323Z,12.60
2022-09-16T06:49:06.112Z,12.60
2022-09-16T06:51:34.815Z,12.60
2022-09-16T06:54:06.619Z,12.50
2022-09-16T06:56:36.255Z,12.50
2022-09-16T06:59:03.677Z,12.60
2022-09-16T07:01:31.850Z,12.60
2022-09-16T07:04:06.505Z,12.60
2022-09-16T07:07:04.781Z,12.70
2022-09-16T07:09:20.700Z,12.90
2022-09-16T07:11:47.423Z,12.80
2022-09-16T07:14:14.282Z,12.90
2022-09-16T07:16:41.182Z,13.10
2022-09-16T07:19:08.246Z,13.20
2022-09-16T07:21:35.778Z,13.30
2022-09-16T07:24:03.649Z,13.20
2022-09-16T07:26:32.958Z,13.30
2022-09-16T07:29:02.110Z,13.30
2022-09-16T07:31:35.037Z,13.40
2022-09-16T07:34:04.528Z,13.30
2022-09-16T07:36:40.718Z,13.30
2022-09-16T07:39:08.140Z,13.30
2022-09-16T07:41:40.572Z,13.30
2022-09-16T07:44:08.523Z,13.30
2022-09-16T07:46:36.784Z,13.20
2022-09-16T07:49:06.509Z,13.10
2022-09-16T07:51:34.277Z,13.40
2022-09-16T07:54:04.723Z,13.60
2022-09-16T07:56:34.566Z,13.70
2022-09-16T07:59:03.185Z,13.90
2022-09-16T08:01:31.343Z,14.10
2022-09-16T08:03:59.401Z,14.00
2022-09-16T08:06:28.724Z,14.20
2022-09-16T08:09:05.880Z,14.40
2022-09-16T08:11:42.340Z,14.60
2022-09-16T08:14:09.113Z,14.50
2022-09-16T08:16:35.908Z,14.60
2022-09-16T08:19:02.691Z,15.00
2022-09-16T08:21:29.727Z,14.90
2022-09-16T08:23:57.359Z,14.90
2022-09-16T08:26:24.849Z,14.90
2022-09-16T08:29:07.994Z,15.20
2022-09-16T08:31:35.747Z,15.20
2022-09-16T08:34:02.732Z,15.70
2022-09-16T08:36:29.447Z,15.50
2022-09-16T08:38:56.861Z,15.40
2022-09-16T08:41:49.156Z,15.40
2022-09-16T08:44:56.811Z,15.10
2022-09-16T08:47:50.605Z,15.20
2022-09-16T08:50:29.162Z,15.30
2022-09-16T08:52:59.926Z,15.40
2022-09-16T08:55:34.417Z,15.90
2022-09-16T08:58:26.585Z,16.00
2022-09-16T09:00:58.274Z,16.10
2022-09-16T09:03:38.944Z,16.00
2022-09-16T09:06:41.057Z,16.30
2022-09-16T09:09:36.263Z,16.50
2022-09-16T09:12:09.499Z,16.60
2022-09-16T09:14:51.756Z,16.60
2022-09-16T09:17:37.253Z,16.60
2022-09-16T09:20:43.723Z,16.50
2022-09-16T09:23:24.627Z,15.30
2022-09-16T09:26:39.255Z,14.30
2022-09-16T09:29:24.837Z,14.00
2022-09-16T09:32:15.690Z,14.00
2022-09-16T09:35:04.605Z,13.90
2022-09-16T09:37:56.725Z,13.70
2022-09-16T09:40:39.173Z,13.50
2022-09-16T09:43:30.903Z,13.40
2022-09-16T09:46:23.433Z,13.50
2022-09-16T09:49:09.162Z,13.60
2022-09-16T09:51:45.487Z,13.70
2022-09-16T09:54:31.895Z,13.70
2022-09-16T09:57:10.275Z,13.60
2022-09-16T10:00:02.215Z,13.70
2022-09-16T10:02:29.253Z,13.60
2022-09-16T10:04:56.370Z,13.70
2022-09-16T10:07:25.663Z,13.70
2022-09-16T10:10:17.519Z,13.80
2022-09-16T10:12:44.675Z,13.90
2022-09-16T10:15:28.028Z,13.90
2022-09-16T10:17:56.429Z,14.10
2022-09-16T10:20:42.480Z,14.30
2022-09-16T10:23:23.555Z,14.50
2022-09-16T10:26:09.837Z,14.60
2022-09-16T10:28:36.644Z,14.60
2022-09-16T10:31:06.478Z,14.70
2022-09-16T10:33:42.495Z,14.90
2022-09-16T10:36:11.591Z,15.00
2022-09-16T10:39:04.856Z,15.30
2022-09-16T10:41:47.636Z,15.30
2022-09-16T10:44:21.354Z,15.30
2022-09-16T10:47:00.743Z,15.30
2022-09-16T10:50:02.268Z,15.40
2022-09-16T10:52:31.725Z,15.40
2022-09-16T10:55:21.134Z,15.40
2022-09-16T10:57:48.244Z,15.40
2022-09-16T11:00:23.540Z,15.40
2022-09-16T11:03:23.655Z,15.40
2022-09-16T11:05:56.869Z,15.50
2022-09-16T11:08:53.077Z,15.50
2022-09-16T11:11:25.901Z,15.40
2022-09-16T11:14:22.395Z,15.70
2022-09-16T11:17:01.082Z,15.90
2022-09-16T11:19:46.914Z,16.10
2022-09-16T11:22:16.640Z,16.40
2022-09-16T11:25:17.127Z,16.60
2022-09-16T11:27:55.438Z,16.90
2022-09-16T11:30:23.015Z,16.80
2022-09-16T11:33:22.310Z,16.30
2022-09-16T11:36:26.448Z,16.10
2022-09-16T11:39:16.261Z,14.40
2022-09-16T11:41:49.792Z,13.70
2022-09-16T11:44:41.600Z,13.40
2022-09-16T11:47:40.906Z,12.80
2022-09-16T11:50:30.134Z,13.00
2022-09-16T11:53:42.618Z,13.40
2022-09-16T11:56:25.714Z,13.50
2022-09-16T11:59:01.179Z,14.10
2022-09-16T12:01:32.424Z,14.60
2022-09-16T12:04:12.205Z,15.00
2022-09-16T12:07:15.029Z,15.70
2022-09-16T12:10:20.250Z,16.00
2022-09-16T12:12:53.238Z,16.00
2022-09-16T12:15:29.224Z,15.90
2022-09-16T12:18:01.244Z,15.70
2022-09-16T12:20:30.173Z,15.50
2022-09-16T12:23:25.494Z,15.30
2022-09-16T12:26:12.726Z,15.50
2022-09-16T12:28:54.820Z,15.20
2022-09-16T12:31:35.168Z,15.20
2022-09-16T12:34:26.845Z,15.10
2022-09-16T12:37:15.044Z,15.00
2022-09-16T12:39:42.898Z,14.60
2022-09-16T12:42:37.822Z,14.70
2022-09-16T12:45:16.100Z,14.40
2022-09-16T12:48:21.195Z,14.50
2022-09-16T12:50:53.453Z,14.40
2022-09-16T12:53:41.593Z,13.80
2022-09-16T12:56:17.095Z,13.80
2022-09-16T12:59:16.712Z,14.20
2022-09-16T13:01:59.542Z,13.90
2022-09-16T13:04:38.883Z,14.10
2022-09-16T13:07:06.483Z,13.80
2022-09-16T13:09:38.954Z,13.60
2022-09-16T13:12:39.161Z,13.40
2022-09-16T13:15:06.424Z,13.40
2022-09-16T13:17:40.563Z,13.60
2022-09-16T13:20:39.425Z,13.60
2022-09-16T13:23:14.618Z,14.00
2022-09-16T13:26:03.423Z,14.20
2022-09-16T13:28:33.474Z,14.00
2022-09-16T13:31:12.738Z,14.00
2022-09-16T13:33:41.686Z,13.90
2022-09-16T13:36:11.518Z,13.80
2022-09-16T13:38:41.341Z,14.20
2022-09-16T13:41:11.503Z,14.60
2022-09-16T13:43:51.574Z,14.70
2022-09-16T13:46:32.531Z,14.40
2022-09-16T13:49:12.939Z,14.30
2022-09-16T13:51:46.184Z,14.30
2022-09-16T13:54:21.950Z,14.70
2022-09-16T13:57:13.798Z,15.10
2022-09-16T14:00:02.131Z,14.70
2022-09-16T14:02:31.682Z,14.50
2022-09-16T14:05:28.682Z,14.20
2022-09-16T14:08:31.163Z,14.40
2022-09-16T14:11:02.052Z,14.90
2022-09-16T14:13:45.445Z,15.10
2022-09-16T14:16:20.995Z,15.20
2022-09-16T14:19:03.380Z,15.20
2022-09-16T14:21:30.607Z,15.30
2022-09-16T14:24:20.770Z,15.20
2022-09-16T14:26:52.505Z,15.10
2022-09-16T14:29:19.921Z,15.00
2022-09-16T14:31:48.237Z,15.10
2022-09-16T14:34:36.423Z,15.50
2022-09-16T14:37:05.215Z,15.60
2022-09-16T14:39:34.553Z,15.50
2022-09-16T14:42:05.781Z,15.40
2022-09-16T14:44:40.724Z,15.60
2022-09-16T14:47:39.733Z,15.60
2022-09-16T14:50:18.420Z,15.80
2022-09-16T14:52:54.776Z,15.90
2022-09-16T14:55:24.564Z,16.20
2022-09-16T14:57:51.810Z,16.00
2022-09-16T15:00:20.004Z,16.10
2022-09-16T15:02:55.649Z,16.10
2022-09-16T15:05:59.737Z,16.00
2022-09-16T15:08:37.245Z,16.20
2022-09-16T15:11:36.222Z,16.60
2022-09-16T15:14:07.468Z,16.70
2022-09-16T15:17:00.605Z,16.50
2022-09-16T15:19:39.886Z,16.50
2022-09-16T15:22:11.100Z,16.40
2022-09-16T15:24:41.215Z,16.30
2022-09-16T15:27:09.219Z,16.30
2022-09-16T15:29:46.606Z,16.30
2022-09-16T15:32:22.156Z,16.40
2022-09-16T15:35:00.568Z,16.30
2022-09-16T15:37:32.395Z,16.20
2022-09-16T15:40:20.815Z,15.90
2022-09-16T15:43:20.670Z,15.70
2022-09-16T15:46:16.049Z,15.60
2022-09-16T15:48:46.964Z,15.30
2022-09-16T15:51:26.950Z,15.10
2022-09-16T15:54:00.313Z,14.90
2022-09-16T15:56:44.542Z,14.90
2022-09-16T15:59:46.489Z,14.90
2022-09-16T16:02:43.255Z,14.90
2022-09-16T16:05:17.243Z,14.70
2022-09-16T16:07:49.720Z,14.90
2022-09-16T16:10:17.047Z,15.10
2022-09-16T16:12:49.004Z,15.20
2022-09-16T16:15:18.649Z,15.00
2022-09-16T16:17:47.349Z,14.80
2022-09-16T16:20:15.311Z,14.80
2022-09-16T16:22:44.822Z,14.60
2022-09-16T16:25:13.547Z,14.70
2022-09-16T16:27:40.641Z,14.70
2022-09-16T16:30:08.907Z,14.70
2022-09-16T16:32:38.546Z,14.50
2022-09-16T16:35:06.389Z,14.30
2022-09-16T16:37:46.001Z,14.40
2022-09-16T16:40:14.869Z,14.20
2022-09-16T16:42:43.597Z,14.10
2022-09-16T16:45:13.515Z,14.00
2022-09-16T16:47:40.556Z,14.10
2022-09-16T16:50:07.548Z,14.00
2022-09-16T16:52:34.304Z,13.80
2022-09-16T16:55:01.117Z,13.80
2022-09-16T16:57:28.193Z,13.90
2022-09-16T16:59:54.943Z,13.80
2022-09-16T17:02:21.713Z,13.90
2022-09-16T17:04:48.847Z,14.00
2022-09-16T17:07:30.899Z,13.90
2022-09-16T17:09:58.530Z,13.80
2022-09-16T17:12:26.853Z,13.80
2022-09-16T17:14:53.661Z,13.90
2022-09-16T17:17:20.402Z,13.90
2022-09-16T17:19:47.241Z,13.70
2022-09-16T17:22:14.033Z,13.60
2022-09-16T17:24:40.884Z,13.60
2022-09-16T17:27:07.945Z,13.60
2022-09-16T17:29:35.006Z,13.60
2022-09-16T17:32:03.199Z,13.40
2022-09-16T17:34:31.166Z,13.30
2022-09-16T17:36:58.508Z,13.20
2022-09-16T17:39:26.012Z,13.00
2022-09-16T17:41:54.515Z,12.90
2022-09-16T17:44:21.298Z,12.80
2022-09-16T17:46:48.360Z,12.90
2022-09-16T17:49:17.000Z,12.80
2022-09-16T17:51:43.775Z,12.80
2022-09-16T17:54:11.501Z,12.60
2022-09-16T17:56:38.967Z,12.40
2022-09-16T17:59:06.784Z,12.50
2022-09-16T18:01:33.609Z,12.40
2022-09-16T18:04:01.830Z,12.40
2022-09-16T18:06:31.801Z,12.40
2022-09-16T18:09:04.335Z,12.20
2022-09-16T18:11:31.463Z,12.20
2022-09-16T18:14:00.829Z,12.30
2022-09-16T18:16:29.637Z,12.40
2022-09-16T18:18:59.240Z,12.30
2022-09-16T18:21:26.690Z,12.50
2022-09-16T18:24:02.397Z,12.40
2022-09-16T18:26:30.153Z,12.20
2022-09-16T18:29:09.641Z,12.30
2022-09-16T18:31:37.520Z,12.40
2022-09-16T18:34:04.926Z,12.20
2022-09-16T18:36:33.378Z,12.10
2022-09-16T18:39:00.342Z,12.10
2022-09-16T18:41:30.983Z,12.10
2022-09-16T18:44:03.471Z,12.20
2022-09-16T18:46:35.526Z,12.00
2022-09-16T18:49:03.246Z,12.00
2022-09-16T18:51:36.268Z,12.10
2022-09-16T18:54:07.927Z,12.00
2022-09-16T18:56:36.904Z,12.10
2022-09-16T18:59:21.410Z,12.10
2022-09-16T19:01:50.255Z,12.30
2022-09-16T19:04:19.941Z,12.30
2022-09-16T19:06:48.997Z,12.50
2022-09-16T19:09:18.333Z,12.40
2022-09-16T19:11:45.425Z,12.40
2022-09-16T19:14:13.920Z,12.30
2022-09-16T19:16:45.367Z,12.40
2022-09-16T19:19:14.572Z,12.50
2022-09-16T19:21:42.545Z,12.50
2022-09-16T19:24:15.669Z,12.50
2022-09-16T19:26:43.682Z,12.60
2022-09-16T19:29:12.475Z,12.70
2022-09-16T19:31:41.471Z,12.70
2022-09-16T19:34:10.511Z,12.50
2022-09-16T19:36:38.192Z,12.40
2022-09-16T19:39:06.708Z,12.30
2022-09-16T19:41:35.944Z,12.20
2022-09-16T19:44:05.683Z,12.00
2022-09-16T19:46:37.622Z,11.90
2022-09-16T19:49:05.803Z,11.90
2022-09-16T19:51:33.267Z,12.10
2022-09-16T19:54:01.332Z,12.10
2022-09-16T19:56:32.718Z,12.20
2022-09-16T19:59:01.575Z,12.20
2022-09-16T20:01:31.937Z,12.20
2022-09-16T20:03:59.698Z,12.20
2022-09-16T20:06:30.789Z,12.20
2022-09-16T20:08:59.888Z,12.30
2022-09-16T20:11:29.498Z,12.40
2022-09-16T20:14:02.208Z,12.40
2022-09-16T20:16:34.368Z,12.40
2022-09-16T20:19:01.941Z,12.50
2022-09-16T20:21:29.936Z,12.40
2022-09-16T20:23:57.209Z,12.30
2022-09-16T20:26:24.155Z,12.40
2022-09-16T20:28:52.894Z,12.40
2022-09-16T20:31:24.890Z,12.40
2022-09-16T20:33:52.565Z,12.10
2022-09-16T20:36:21.949Z,12.10
2022-09-16T20:38:50.143Z,12.10
2022-09-16T20:41:26.240Z,12.20
2022-09-16T20:43:53.469Z,12.10
2022-09-16T20:46:28.139Z,12.10
2022-09-16T20:48:56.251Z,12.20
2022-09-16T20:51:25.965Z,12.00
2022-09-16T20:53:55.051Z,12.10
2022-09-16T20:56:22.272Z,12.10
2022-09-16T20:58:49.563Z,12.20
2022-09-16T21:01:20.697Z,12.30
2022-09-16T21:03:51.988Z,12.30
2022-09-16T21:06:19.382Z,12.20
2022-09-16T21:08:46.344Z,12.10
2022-09-16T21:11:16.174Z,12.00
2022-09-16T21:13:45.077Z,11.90
2022-09-16T21:16:15.834Z,12.00
2022-09-16T21:18:43.302Z,11.90
2022-09-16T21:21:18.188Z,11.90
2022-09-16T21:23:49.357Z,11.80
2022-09-16T21:26:21.597Z,11.80
2022-09-16T21:29:03.895Z,11.80
2022-09-16T21:31:33.504Z,11.80
2022-09-16T21:34:02.422Z,11.90
2022-09-16T21:36:29.862Z,11.80
2022-09-16T21:38:57.582Z,11.80
2022-09-16T21:41:25.288Z,11.80
2022-09-16T21:43:55.695Z,11.70
2022-09-16T21:46:27.216Z,11.60
2022-09-16T21:48:58.409Z,11.60
2022-09-16T21:51:25.224Z,11.50
2022-09-16T21:53:52.163Z,11.50
2022-09-16T21:56:23.395Z,11.40
2022-09-16T21:58:54.273Z,11.40
2022-09-16T22:01:23.575Z,11.40
2022-09-16T22:04:00.536Z,11.50
2022-09-16T22:06:28.083Z,11.50
2022-09-16T22:08:57.242Z,11.70
2022-09-16T22:11:26.077Z,11.50
2022-09-16T22:13:56.678Z,11.60
2022-09-16T22:16:28.811Z,11.60
2022-09-16T22:19:04.244Z,11.60
2022-09-16T22:21:34.120Z,11.80
2022-09-16T22:24:02.140Z,11.90
2022-09-16T22:26:29.922Z,11.90
2022-09-16T22:28:57.192Z,12.00
2022-09-16T22:31:26.402Z,12.00
2022-09-16T22:33:55.160Z,11.90
2022-09-16T22:36:26.113Z,12.10
2022-09-16T22:38:55.084Z,12.10
2022-09-16T22:41:23.193Z,12.20
2022-09-16T22:43:51.475Z,12.20
2022-09-16T22:46:27.593Z,12.20
2022-09-16T22:48:58.519Z,12.30
2022-09-16T22:51:26.468Z,12.20
2022-09-16T22:53:54.197Z,12.20
2022-09-16T22:56:28.366Z,12.10
2022-09-16T22:58:57.155Z,12.20
2022-09-16T23:01:27.232Z,12.30
2022-09-16T23:03:56.425Z,12.20
2022-09-16T23:06:27.151Z,12.20
2022-09-16T23:08:54.493Z,12.10
2022-09-16T23:11:24.021Z,12.30
2022-09-16T23:13:52.880Z,12.10
2022-09-16T23:16:26.981Z,12.00
2022-09-16T23:18:56.255Z,12.10
2022-09-16T23:21:24.017Z,12.20
2022-09-16T23:23:53.396Z,12.10
2022-09-16T23:26:26.346Z,12.10
2022-09-16T23:28:55.041Z,12.00
2022-09-16T23:31:24.431Z,12.20
2022-09-16T23:33:52.588Z,12.20
2022-09-16T23:36:20.282Z,12.20
2022-09-16T23:38:47.414Z,12.20
2022-09-16T23:41:20.659Z,12.10
2022-09-16T23:43:49.204Z,12.20
2022-09-16T23:46:19.187Z,12.10
2022-09-16T23:48:46.863Z,12.20
2022-09-16T23:51:14.291Z,12.20
2022-09-16T23:53:42.492Z,12.10
2022-09-16T23:56:11.661Z,12.00
2022-09-16T23:58:39.848Z,12.00
